This is the latest recevied weather packets stored in our database for station/object WK7G. If no packets are shown the sender has not sent any weather packets the latest 10 day(s).
| Time | Temp. | Humidity | Pressure | Rain* | Wind** | Luminosity | Snow |
|---|---|---|---|---|---|---|---|
| 1777574273 | 8.89° C | 49% | 1014.2 hPa | 0 mm | - | 897 W/m² | - |
| 1777573968 | 9.44° C | 47% | 1013.6 hPa | 0 mm | - | 911 W/m² | - |
| 1777573663 | 8.89° C | 47% | 1013.9 hPa | 0 mm | - | 888 W/m² | - |
| 1777572446 | 8.89° C | 50% | 1014.2 hPa | 0 mm | - | 912 W/m² | - |
| 1777570928 | 8.33° C | 54% | 1014.7 hPa | 0 mm | - | 796 W/m² | - |
| 1777569712 | 7.78° C | 60% | 1014.7 hPa | 0 mm | - | 903 W/m² | - |
| 1777568195 | 6.67° C | 62% | 1014.7 hPa | 0 mm | - | 835 W/m² | - |
| 1777566076 | 5.56° C | 71% | 1014.9 hPa | 0 mm | - | 749 W/m² | - |
| 1777565771 | 5° C | 74% | 1014.9 hPa | 0 mm | - | 730 W/m² | - |
| 1777565468 | 5° C | 74% | 1015.1 hPa | 0 mm | - | 688 W/m² | - |
| 1777563948 | 3.89° C | 75% | 1014.9 hPa | 0 mm | - | 534 W/m² | - |
| 1777563343 | 3.89° C | 75% | 1015.2 hPa | 0 mm | - | 485 W/m² | - |
| 1777562736 | 3.33° C | 78% | 1015.2 hPa | 0 mm | - | 446 W/m² | - |
| 1777562435 | 3.33° C | 75% | 1014.9 hPa | 0 mm | - | 422 W/m² | - |
| 1777561221 | 2.78° C | 75% | 1014.9 hPa | 0 mm | - | 363 W/m² | - |
| 1777560920 | 3.33° C | 73% | 1014.9 hPa | 0 mm | - | 346 W/m² | - |
| 1777558797 | 1.11° C | 78% | 1015.2 hPa | 0 mm | - | 283 W/m² | - |
| 1777557279 | 0° C | 86% | 1015.2 hPa | 0 mm | - | 125 W/m² | - |
| 1777556062 | -2.22° C | 89% | 1015.2 hPa | 0 mm | - | 85 W/m² | - |
| 1777555762 | -2.22° C | 89% | 1015.2 hPa | 0 mm | - | 78 W/m² | - |
| 1777555459 | -2.78° C | 89% | 1015.2 hPa | 0 mm | - | 70 W/m² | - |
| 1777555155 | -2.78° C | 89% | 1015.4 hPa | 0 mm | - | 62 W/m² | - |
| 1777554852 | -2.78° C | 89% | 1015.2 hPa | 0 mm | - | 56 W/m² | - |
| 1777554550 | -3.33° C | 90% | 1015.1 hPa | 0 mm | - | 49 W/m² | - |
| 1777554246 | -2.78° C | 90% | 1015.7 hPa | 0 mm | - | 43 W/m² | - |
* Rain latest hour (hover to see other rain measurements)
** Current wind speed in m/s (hover to see current wind gust speed)